createdAt,value
2023-10-23T00:02:37.214Z,101390.63
2023-10-23T00:07:24.326Z,101408.16
2023-10-23T00:12:16.828Z,101428.81
2023-10-23T00:17:04.511Z,101411.72
2023-10-23T00:21:51.726Z,101399.34
2023-10-23T00:26:38.916Z,101395.34
2023-10-23T00:31:28.855Z,101417.91
2023-10-23T00:36:16.560Z,101407.22
2023-10-23T00:41:04.891Z,101417.38
2023-10-23T00:45:55.868Z,101433.28
2023-10-23T00:50:45.862Z,101434.75
2023-10-23T00:55:33.033Z,101437.88
2023-10-23T01:00:20.540Z,101434.25
2023-10-23T01:05:08.247Z,101444.59
2023-10-23T01:09:57.995Z,101448.88
2023-10-23T01:14:45.177Z,101446.88
2023-10-23T01:19:33.339Z,101450.81
2023-10-23T01:24:23.213Z,101419.13
2023-10-23T01:29:13.068Z,101449.97
2023-10-23T01:34:00.298Z,101440.31
2023-10-23T01:38:47.384Z,101429.16
2023-10-23T01:43:34.434Z,101438.34
2023-10-23T01:48:24.279Z,101447.63
2023-10-23T01:53:11.432Z,101414.06
2023-10-23T01:57:58.800Z,101418.91
2023-10-23T02:02:46.071Z,101426.94
2023-10-23T02:07:35.858Z,101438.81
2023-10-23T02:12:23.158Z,101377.28
2023-10-23T02:17:10.305Z,101447.59
2023-10-23T02:21:57.833Z,101427.38
2023-10-23T02:26:47.695Z,101435.88
2023-10-23T02:31:35.266Z,101466.59
2023-10-23T02:36:22.408Z,101452.94
2023-10-23T02:41:11.213Z,101460.22
2023-10-23T02:46:04.621Z,101412.31
2023-10-23T02:50:54.840Z,101457.81
2023-10-23T02:55:42.036Z,101484.25
2023-10-23T03:00:29.636Z,101457.41
2023-10-23T03:05:19.509Z,101475.16
2023-10-23T03:10:07.830Z,101481.06
2023-10-23T03:14:55.087Z,101477.50
2023-10-23T03:19:42.253Z,101460.38
2023-10-23T03:24:32.966Z,101451.31
2023-10-23T03:29:20.227Z,101467.78
2023-10-23T03:34:07.328Z,101475.25
2023-10-23T03:38:55.282Z,101488.19
2023-10-23T03:43:44.946Z,101488.94
2023-10-23T03:48:35.088Z,101448.38
2023-10-23T03:53:22.203Z,101475.75
2023-10-23T03:58:09.269Z,101456.22
2023-10-23T04:02:59.036Z,101396.28
2023-10-23T04:07:46.425Z,101463.28
2023-10-23T04:12:33.786Z,101447.31
2023-10-23T04:17:20.902Z,101439.06
2023-10-23T04:22:10.707Z,101482.22
2023-10-23T04:26:57.739Z,101493.13
2023-10-23T04:31:45.040Z,101496.75
2023-10-23T04:36:32.276Z,101484.72
2023-10-23T04:41:23.022Z,101485.09
2023-10-23T04:46:10.266Z,101493.91
2023-10-23T04:51:01.149Z,101489.31
2023-10-23T04:55:48.208Z,101403.94
2023-10-23T05:00:39.499Z,101485.66
2023-10-23T05:05:26.700Z,101472.97
2023-10-23T05:10:13.973Z,101461.41
2023-10-23T05:15:01.930Z,101474.78
2023-10-23T05:19:51.708Z,101458.25
2023-10-23T05:24:39.020Z,101469.25
2023-10-23T05:29:26.173Z,101468.56
2023-10-23T05:34:13.353Z,101476.81
2023-10-23T05:39:03.085Z,101479.38
2023-10-23T05:43:50.256Z,101468.94
2023-10-23T05:48:37.429Z,101475.09
2023-10-23T05:53:24.691Z,101453.75
2023-10-23T05:58:14.373Z,101495.19
2023-10-23T06:03:01.611Z,101430.47
2023-10-23T06:07:49.017Z,101515.00
2023-10-23T06:12:37.616Z,101479.19
2023-10-23T06:17:27.572Z,101457.56
2023-10-23T06:22:14.696Z,101432.00
2023-10-23T06:27:01.775Z,101482.81
2023-10-23T06:31:48.939Z,101481.88
2023-10-23T06:36:41.350Z,101496.59
2023-10-23T06:41:28.506Z,101452.88
2023-10-23T06:46:15.692Z,101500.53
2023-10-23T06:51:03.123Z,101493.81
2023-10-23T06:55:54.339Z,101502.63
2023-10-23T07:00:41.545Z,101499.16
2023-10-23T07:05:28.700Z,101450.56
2023-10-23T07:10:16.016Z,101449.91
2023-10-23T07:15:06.862Z,101486.56
2023-10-23T07:19:53.963Z,101491.72
2023-10-23T07:24:41.260Z,101472.78
2023-10-23T07:29:28.579Z,101484.56
2023-10-23T07:34:18.470Z,101457.75
2023-10-23T07:39:06.413Z,101487.81
2023-10-23T07:43:53.504Z,101477.19
2023-10-23T07:48:40.683Z,101474.63
2023-10-23T07:53:30.733Z,101458.44
2023-10-23T07:58:17.910Z,101480.81
2023-10-23T08:03:05.143Z,101479.13
2023-10-23T08:07:52.411Z,101478.72
2023-10-23T08:12:42.324Z,101443.72
2023-10-23T08:17:39.278Z,101449.94
2023-10-23T08:22:29.493Z,101469.44
2023-10-23T08:27:16.588Z,101485.06
2023-10-23T08:32:06.653Z,101469.16
2023-10-23T08:36:53.810Z,101503.56
2023-10-23T08:41:42.735Z,101472.22
2023-10-23T08:46:32.590Z,101502.31
2023-10-23T08:51:22.739Z,101508.63
2023-10-23T08:56:10.083Z,101502.69
2023-10-23T09:00:57.657Z,101509.56
2023-10-23T09:05:44.898Z,101486.41
2023-10-23T09:11:03.716Z,101498.94
2023-10-23T09:15:51.548Z,101500.75
2023-10-23T09:20:38.919Z,101490.28
2023-10-23T09:25:26.513Z,101462.72
2023-10-23T09:30:17.577Z,101460.56
2023-10-23T09:35:05.909Z,101479.09
2023-10-23T09:39:52.948Z,101449.91
2023-10-23T09:44:44.125Z,101463.50
2023-10-23T09:49:34.039Z,101454.19
2023-10-23T09:54:21.687Z,101436.16
2023-10-23T09:59:10.069Z,101480.28
2023-10-23T10:04:06.916Z,101456.47
2023-10-23T10:08:57.601Z,101411.13
2023-10-23T10:13:45.754Z,101460.09
2023-10-23T10:18:37.126Z,101436.47
2023-10-23T10:23:25.665Z,101437.09
2023-10-23T10:28:15.499Z,101446.22
2023-10-23T10:34:22.858Z,101431.25
2023-10-23T10:38:12.168Z,101428.53
2023-10-23T10:42:59.435Z,101414.09
2023-10-23T10:47:53.068Z,101378.31
2023-10-23T10:52:41.555Z,101383.59
2023-10-23T10:57:28.709Z,101397.78
2023-10-23T11:02:16.319Z,101389.88
2023-10-23T11:07:07.718Z,101376.44
2023-10-23T11:11:58.294Z,101387.16
2023-10-23T11:16:45.406Z,101379.34
2023-10-23T11:21:32.542Z,101362.31
2023-10-23T11:26:22.442Z,101364.31
2023-10-23T11:31:09.693Z,101348.53
2023-10-23T11:35:56.890Z,101334.69
2023-10-23T11:40:44.590Z,101327.63
2023-10-23T11:45:34.364Z,101316.34
2023-10-23T11:50:25.080Z,101304.09
2023-10-23T11:55:14.404Z,101274.94
2023-10-23T12:00:03.233Z,101283.03
2023-10-23T12:05:01.683Z,101179.56
2023-10-23T12:09:49.081Z,101277.38
2023-10-23T12:14:36.391Z,101262.19
2023-10-23T12:19:23.524Z,101263.81
2023-10-23T12:24:13.400Z,101239.66
2023-10-23T12:29:00.685Z,101264.63
2023-10-23T12:33:48.045Z,101221.19
2023-10-23T12:38:35.553Z,101237.91
2023-10-23T12:43:25.435Z,101218.31
2023-10-23T12:48:12.701Z,101210.47
2023-10-23T12:53:00.299Z,101239.78
2023-10-23T12:57:47.540Z,101219.59
2023-10-23T13:02:38.423Z,101207.38
2023-10-23T13:07:25.649Z,101194.75
2023-10-23T13:12:13.268Z,101209.41
2023-10-23T13:17:00.658Z,101183.00
2023-10-23T13:21:50.589Z,101185.09
2023-10-23T13:26:37.753Z,101153.16
2023-10-23T13:31:25.140Z,101121.84
2023-10-23T13:36:12.702Z,101166.81
2023-10-23T13:41:03.257Z,101130.59
2023-10-23T13:45:51.154Z,101149.19
2023-10-23T13:50:38.450Z,101160.09
2023-10-23T13:55:26.032Z,101159.25
2023-10-23T14:00:17.378Z,101144.72
2023-10-23T14:05:05.628Z,101148.00
2023-10-23T14:09:53.230Z,101137.59
2023-10-23T14:14:40.926Z,101118.91
2023-10-23T14:19:45.628Z,101082.56
2023-10-23T14:24:34.606Z,101100.53
2023-10-23T14:29:21.769Z,101067.38
2023-10-23T14:34:08.937Z,101065.75
2023-10-23T14:38:58.661Z,101034.25
2023-10-23T14:43:45.758Z,100950.78
2023-10-23T14:48:32.856Z,101061.34
2023-10-23T14:53:20.180Z,101048.69
2023-10-23T14:58:09.940Z,101016.31
2023-10-23T15:02:57.153Z,101039.63
2023-10-23T15:07:44.339Z,101038.44
2023-10-23T15:12:31.459Z,101002.84
2023-10-23T15:17:21.365Z,100979.13
2023-10-23T15:22:11.291Z,101008.50
2023-10-23T15:26:58.592Z,100983.91
2023-10-23T15:31:46.069Z,101008.13
2023-10-23T15:36:36.158Z,100995.91
2023-10-23T15:41:23.484Z,100958.97
2023-10-23T15:46:13.587Z,100917.94
2023-10-23T15:51:00.969Z,100974.16
2023-10-23T15:55:51.195Z,100966.28
2023-10-23T16:00:38.557Z,100956.75
2023-10-23T16:05:26.255Z,100963.13
2023-10-23T16:10:15.746Z,100952.63
2023-10-23T16:15:07.077Z,100950.06
2023-10-23T16:19:54.140Z,100926.13
2023-10-23T16:24:41.529Z,100921.34
2023-10-23T16:29:29.055Z,100914.50
2023-10-23T16:34:18.904Z,100927.47
2023-10-23T16:39:06.129Z,100923.91
2023-10-23T16:43:53.179Z,100906.94
2023-10-23T16:48:41.023Z,100914.63
2023-10-23T16:53:30.885Z,100919.63
2023-10-23T16:58:18.086Z,100924.28
2023-10-23T17:03:05.566Z,100904.13
2023-10-23T17:07:52.932Z,100905.72
2023-10-23T17:12:42.595Z,100880.91
2023-10-23T17:17:29.759Z,100866.13
2023-10-23T17:22:17.045Z,100872.72
2023-10-23T17:27:05.193Z,100871.28
2023-10-23T17:31:55.164Z,100853.91
2023-10-23T17:36:42.359Z,100845.84
2023-10-23T17:41:29.506Z,100848.31
2023-10-23T17:46:16.829Z,100838.56
2023-10-23T17:51:06.666Z,100833.41
2023-10-23T17:55:53.871Z,100800.94
2023-10-23T18:00:41.138Z,100849.31
2023-10-23T18:05:28.408Z,100849.31
2023-10-23T18:10:19.150Z,100823.44
2023-10-23T18:15:07.505Z,100830.00
2023-10-23T18:19:54.668Z,100823.44
2023-10-23T18:24:59.439Z,100809.75
2023-10-23T18:29:49.417Z,100823.53
2023-10-23T18:34:36.960Z,100742.09
2023-10-23T18:39:24.077Z,100800.25
2023-10-23T18:44:11.337Z,100811.06
2023-10-23T18:49:01.146Z,100785.09
2023-10-23T18:53:48.262Z,100793.88
2023-10-23T18:58:35.655Z,100762.63
2023-10-23T19:03:23.352Z,100782.41
2023-10-23T19:08:13.261Z,100773.84
2023-10-23T19:13:00.465Z,100767.03
2023-10-23T19:17:47.679Z,100771.50
2023-10-23T19:22:34.960Z,100780.69
2023-10-23T19:27:24.816Z,100735.03
2023-10-23T19:32:13.665Z,100741.41
2023-10-23T19:37:01.482Z,100735.03
2023-10-23T19:41:49.892Z,100759.56
2023-10-23T19:46:40.389Z,100742.56
2023-10-23T19:51:29.614Z,100700.59
2023-10-23T19:56:17.530Z,100697.19
2023-10-23T20:01:04.773Z,100670.47
2023-10-23T20:05:54.638Z,100669.84
2023-10-23T20:10:41.990Z,100657.00
2023-10-23T20:15:29.192Z,100628.59
2023-10-23T20:20:16.479Z,100640.41
2023-10-23T20:25:06.717Z,100629.81
2023-10-23T20:29:54.686Z,100611.41
2023-10-23T20:34:41.822Z,100597.44
2023-10-23T20:39:29.020Z,100608.94
2023-10-23T20:44:18.814Z,100604.03
2023-10-23T20:49:05.982Z,100555.78
2023-10-23T20:53:53.150Z,100577.44
2023-10-23T20:58:40.296Z,100535.97
2023-10-23T21:03:30.066Z,100558.41
2023-10-23T21:08:17.227Z,100549.38
2023-10-23T21:13:04.557Z,100543.38
2023-10-23T21:17:51.787Z,100535.94
2023-10-23T21:22:41.842Z,100521.66
2023-10-23T21:27:32.024Z,100435.88
2023-10-23T21:32:19.242Z,100514.59
2023-10-23T21:37:06.549Z,100463.81
2023-10-23T21:41:56.325Z,100475.34
2023-10-23T21:46:43.551Z,100494.94
2023-10-23T21:51:31.795Z,100461.91
2023-10-23T21:57:18.653Z,100467.03
2023-10-23T22:01:32.396Z,100444.38
2023-10-23T22:06:20.186Z,100410.03
2023-10-23T22:11:08.437Z,100443.81
2023-10-23T22:15:55.683Z,100445.28
2023-10-23T22:20:45.486Z,100434.69
2023-10-23T22:25:32.649Z,100420.66
2023-10-23T22:30:19.846Z,100416.38
2023-10-23T22:35:07.628Z,100413.84
2023-10-23T22:39:57.501Z,100411.03
2023-10-23T22:44:44.660Z,100380.97
2023-10-23T22:49:32.504Z,100385.22
2023-10-23T22:54:20.351Z,100383.50
2023-10-23T22:59:11.055Z,100387.00
2023-10-23T23:03:58.879Z,100392.38
2023-10-23T23:08:51.200Z,100364.34
2023-10-23T23:13:38.876Z,100375.34
2023-10-23T23:18:30.621Z,100354.91
2023-10-23T23:23:17.762Z,100368.41
2023-10-23T23:28:05.520Z,100372.53
2023-10-23T23:32:52.760Z,100343.91
2023-10-23T23:37:42.624Z,100370.56
2023-10-23T23:42:29.739Z,100367.22
2023-10-23T23:47:16.868Z,100332.31
2023-10-23T23:52:04.351Z,100355.03
2023-10-23T23:56:54.203Z,100358.44
